createdAt,value
2018-02-20T00:00:31.861Z,100966.70
2018-02-20T00:02:59.434Z,100961.56
2018-02-20T00:05:27.063Z,100963.16
2018-02-20T00:07:54.652Z,100964.22
2018-02-20T00:10:22.218Z,100971.97
2018-02-20T00:12:50.124Z,100969.89
2018-02-20T00:15:17.664Z,100964.38
2018-02-20T00:17:45.251Z,100968.69
2018-02-20T00:20:12.865Z,100969.19
2018-02-20T00:22:40.429Z,100970.80
2018-02-20T00:25:08.058Z,100967.20
2018-02-20T00:27:35.613Z,100966.08
2018-02-20T00:30:03.201Z,100965.18
2018-02-20T00:32:30.758Z,100967.31
2018-02-20T00:34:58.290Z,100964.27
2018-02-20T00:37:25.900Z,100963.83
2018-02-20T00:39:53.444Z,100969.69
2018-02-20T00:42:20.937Z,100964.03
2018-02-20T00:44:48.480Z,100957.56
2018-02-20T00:47:16.072Z,100960.81
2018-02-20T00:49:43.610Z,100965.07
2018-02-20T00:52:11.135Z,100967.58
2018-02-20T00:54:39.094Z,100961.13
2018-02-20T00:57:06.699Z,100954.36
2018-02-20T00:59:34.249Z,100958.17
2018-02-20T01:02:01.895Z,100953.73
2018-02-20T01:04:29.503Z,100955.76
2018-02-20T01:06:57.093Z,100955.34
2018-02-20T01:09:24.675Z,100955.16
2018-02-20T01:11:52.188Z,100953.55
2018-02-20T01:14:19.714Z,100951.28
2018-02-20T01:16:47.257Z,100955.41
2018-02-20T01:19:14.815Z,100956.83
2018-02-20T01:21:42.406Z,100953.91
2018-02-20T01:24:09.965Z,100946.08
2018-02-20T01:26:37.532Z,100945.31
2018-02-20T01:29:05.108Z,100949.15
2018-02-20T01:31:32.653Z,100943.05
2018-02-20T01:34:00.208Z,100945.67
2018-02-20T01:36:29.854Z,100944.05
2018-02-20T01:38:57.420Z,100948.02
2018-02-20T01:41:24.956Z,100946.86
2018-02-20T01:43:52.575Z,100946.06
2018-02-20T01:46:20.145Z,100943.23
2018-02-20T01:48:47.762Z,100949.80
2018-02-20T01:51:15.322Z,100942.52
2018-02-20T01:53:42.856Z,100946.27
2018-02-20T01:56:10.427Z,100946.09
2018-02-20T01:58:37.962Z,100938.56
2018-02-20T02:01:05.519Z,100936.11
2018-02-20T02:03:33.145Z,100939.73
2018-02-20T02:06:00.673Z,100938.33
2018-02-20T02:08:28.227Z,100938.69
2018-02-20T02:10:55.781Z,100942.88
2018-02-20T02:13:23.396Z,100938.59
2018-02-20T02:15:51.018Z,100945.64
2018-02-20T02:18:19.399Z,100941.72
2018-02-20T02:20:47.011Z,100948.00
2018-02-20T02:23:14.546Z,100951.92
2018-02-20T02:25:42.075Z,100953.11
2018-02-20T02:28:10.109Z,100950.60
2018-02-20T02:30:37.707Z,100940.89
2018-02-20T02:33:05.254Z,100949.42
2018-02-20T02:35:32.909Z,100939.55
2018-02-20T02:38:00.492Z,100946.59
2018-02-20T02:40:28.034Z,100947.43
2018-02-20T02:42:55.600Z,100947.36
2018-02-20T02:45:23.192Z,100953.60
2018-02-20T02:47:50.747Z,100955.66
2018-02-20T02:50:18.349Z,100951.02
2018-02-20T02:52:45.885Z,100946.84
2018-02-20T02:55:13.382Z,100951.55
2018-02-20T02:57:40.968Z,100951.94
2018-02-20T03:00:08.530Z,100957.41
2018-02-20T03:02:36.097Z,100957.13
2018-02-20T03:05:03.646Z,100957.29
2018-02-20T03:07:31.196Z,100955.22
2018-02-20T03:09:58.835Z,100957.53
2018-02-20T03:12:26.362Z,100952.69
2018-02-20T03:14:53.921Z,100954.45
2018-02-20T03:17:21.475Z,100951.52
2018-02-20T03:19:49.026Z,100948.53
2018-02-20T03:22:16.555Z,100947.98
2018-02-20T03:24:44.152Z,100946.95
2018-02-20T03:27:11.748Z,100946.41
2018-02-20T03:29:39.303Z,100952.81
2018-02-20T03:32:06.902Z,100956.30
2018-02-20T03:34:34.477Z,100953.37
2018-02-20T03:37:02.075Z,100948.95
2018-02-20T03:39:29.604Z,100955.13
2018-02-20T03:41:57.194Z,100952.48
2018-02-20T03:44:24.846Z,100950.05
2018-02-20T03:46:52.419Z,100958.72
2018-02-20T03:49:19.979Z,100954.20
2018-02-20T03:51:47.535Z,100954.38
2018-02-20T03:54:15.095Z,100957.55
2018-02-20T03:56:42.673Z,100962.93
2018-02-20T03:59:10.284Z,100965.00
2018-02-20T04:01:37.845Z,100963.74
2018-02-20T04:04:05.448Z,100967.70
2018-02-20T04:06:33.011Z,100966.99
2018-02-20T04:09:00.570Z,100968.27
2018-02-20T04:11:28.149Z,100972.88
2018-02-20T04:13:55.742Z,100976.54
2018-02-20T04:16:23.268Z,100971.70
2018-02-20T04:18:50.832Z,100974.52
2018-02-20T04:21:18.403Z,100969.26
2018-02-20T04:23:45.960Z,100967.37
2018-02-20T04:26:13.539Z,100966.19
2018-02-20T04:28:41.073Z,100970.71
2018-02-20T04:31:08.633Z,100966.92
2018-02-20T04:33:36.249Z,100963.56
2018-02-20T04:36:03.848Z,100963.98
2018-02-20T04:38:31.420Z,100963.84
2018-02-20T04:40:58.990Z,100973.27
2018-02-20T04:43:26.608Z,100966.00
2018-02-20T04:45:54.177Z,100969.01
2018-02-20T04:48:21.759Z,100968.20
2018-02-20T04:50:49.298Z,100965.78
2018-02-20T04:53:16.826Z,100968.87
2018-02-20T04:55:44.456Z,100968.53
2018-02-20T04:58:12.010Z,100972.44
2018-02-20T05:00:39.679Z,100977.41
2018-02-20T05:03:07.219Z,100971.86
2018-02-20T05:05:34.754Z,100974.73
2018-02-20T05:08:02.312Z,100972.45
2018-02-20T05:10:29.883Z,100969.96
2018-02-20T05:12:57.464Z,100976.72
2018-02-20T05:15:24.997Z,100972.31
2018-02-20T05:17:52.566Z,100979.16
2018-02-20T05:20:20.105Z,100968.97
2018-02-20T05:22:47.689Z,100970.61
2018-02-20T05:25:15.249Z,100976.47
2018-02-20T05:27:42.850Z,100969.71
2018-02-20T05:30:10.424Z,100971.39
2018-02-20T05:32:38.009Z,100976.39
2018-02-20T05:35:05.578Z,100981.98
2018-02-20T05:37:33.153Z,100981.82
2018-02-20T05:40:00.692Z,100979.38
2018-02-20T05:42:28.221Z,100984.69
2018-02-20T05:44:55.742Z,100984.62
2018-02-20T05:47:23.237Z,100984.94
2018-02-20T05:49:50.767Z,100983.81
2018-02-20T05:52:18.341Z,100985.41
2018-02-20T05:54:45.896Z,100984.59
2018-02-20T05:57:13.540Z,100986.19
2018-02-20T05:59:41.101Z,100988.34
2018-02-20T06:02:08.638Z,100988.69
2018-02-20T06:04:36.159Z,100987.02
2018-02-20T06:07:03.744Z,100987.80
2018-02-20T06:09:31.286Z,100990.88
2018-02-20T06:11:58.894Z,100992.28
2018-02-20T06:14:26.500Z,100984.23
2018-02-20T06:16:54.063Z,100989.64
2018-02-20T06:19:21.619Z,100986.33
2018-02-20T06:21:49.190Z,100987.69
2018-02-20T06:24:16.749Z,100985.45
2018-02-20T06:26:44.336Z,100989.28
2018-02-20T06:29:11.900Z,100983.42
2018-02-20T06:31:39.538Z,100986.25
2018-02-20T06:34:07.124Z,100985.61
2018-02-20T06:36:34.728Z,100985.19
2018-02-20T06:39:02.295Z,100991.78
2018-02-20T06:41:29.866Z,100991.80
2018-02-20T06:43:57.428Z,100994.65
2018-02-20T06:46:24.989Z,100996.14
2018-02-20T06:48:52.552Z,100994.63
2018-02-20T06:51:20.078Z,100999.72
2018-02-20T06:53:47.685Z,100991.83
2018-02-20T06:56:15.280Z,100989.76
2018-02-20T06:58:42.847Z,100994.80
2018-02-20T07:01:10.386Z,100998.57
2018-02-20T07:03:37.942Z,101004.85
2018-02-20T07:06:05.501Z,101005.40
2018-02-20T07:08:33.017Z,100999.45
2018-02-20T07:11:00.544Z,100999.22
2018-02-20T07:13:28.110Z,100996.62
2018-02-20T07:15:55.653Z,101003.07
2018-02-20T07:18:23.180Z,101000.12
2018-02-20T07:20:50.746Z,101001.30
2018-02-20T07:23:18.442Z,101002.63
2018-02-20T07:25:45.994Z,101006.34
2018-02-20T07:28:13.551Z,100999.17
2018-02-20T07:30:41.083Z,100999.22
2018-02-20T07:33:08.631Z,101003.20
2018-02-20T07:35:36.188Z,100995.36
2018-02-20T07:38:03.794Z,100994.51
2018-02-20T07:40:31.348Z,101002.87
2018-02-20T07:42:58.907Z,100997.80
2018-02-20T07:45:26.464Z,101004.98
2018-02-20T07:47:54.031Z,101005.22
2018-02-20T07:50:21.579Z,100999.27
2018-02-20T07:52:49.162Z,100999.83
2018-02-20T07:55:16.772Z,100998.30
2018-02-20T07:57:44.369Z,101011.62
2018-02-20T08:00:11.874Z,101010.59
2018-02-20T08:02:39.429Z,101009.23
2018-02-20T08:05:07.005Z,101007.58
2018-02-20T08:07:34.581Z,101006.21
2018-02-20T08:10:02.139Z,101003.88
2018-02-20T08:12:29.731Z,101006.00
2018-02-20T08:14:57.351Z,101007.72
2018-02-20T08:17:24.919Z,101004.64
2018-02-20T08:19:52.502Z,101005.26
2018-02-20T08:22:20.039Z,101000.47
2018-02-20T08:24:47.602Z,101001.47
2018-02-20T08:27:15.125Z,101004.05
2018-02-20T08:29:42.674Z,101008.14
2018-02-20T08:32:10.202Z,101016.36
2018-02-20T08:34:37.737Z,101016.09
2018-02-20T08:37:05.285Z,101019.91
2018-02-20T08:39:32.840Z,101017.74
2018-02-20T08:42:00.468Z,101021.74
2018-02-20T08:44:28.058Z,101025.72
2018-02-20T08:46:55.595Z,101024.77
2018-02-20T08:49:23.169Z,101029.64
2018-02-20T08:51:50.711Z,101022.63
2018-02-20T08:54:18.251Z,101022.02
2018-02-20T08:56:45.755Z,101022.59
2018-02-20T08:59:13.315Z,101019.80
2018-02-20T09:01:40.841Z,101016.33
2018-02-20T09:04:08.365Z,101014.48
2018-02-20T09:06:35.969Z,101010.50
2018-02-20T09:09:03.526Z,101014.11
2018-02-20T09:11:31.048Z,101008.88
2018-02-20T09:13:58.591Z,101014.80
2018-02-20T09:16:26.135Z,101011.97
2018-02-20T09:18:53.688Z,101007.76
2018-02-20T09:21:21.257Z,101008.73
2018-02-20T09:23:48.793Z,101015.00
2018-02-20T09:26:16.398Z,101008.09
2018-02-20T09:28:43.921Z,101012.10
2018-02-20T09:31:11.468Z,101011.50
2018-02-20T09:33:38.965Z,101018.17
2018-02-20T09:36:06.545Z,101014.43
2018-02-20T09:38:34.085Z,101019.45
2018-02-20T09:41:01.619Z,101016.55
2018-02-20T09:43:29.140Z,101020.76
2018-02-20T09:45:56.787Z,101019.47
2018-02-20T09:48:24.332Z,101019.13
2018-02-20T09:50:51.925Z,101010.55
2018-02-20T09:53:19.471Z,101017.67
2018-02-20T09:55:47.013Z,101016.73
2018-02-20T09:58:14.586Z,101016.52
2018-02-20T10:00:42.140Z,101012.89
2018-02-20T10:03:09.696Z,101009.23
2018-02-20T10:05:37.237Z,101009.87
2018-02-20T10:08:04.795Z,101016.13
2018-02-20T10:10:32.329Z,101011.52
2018-02-20T10:12:59.891Z,101018.45
2018-02-20T10:15:27.559Z,101008.48
2018-02-20T10:17:55.072Z,101018.14
2018-02-20T10:20:22.683Z,101011.01
2018-02-20T10:22:50.240Z,101014.56
2018-02-20T10:25:17.740Z,101011.42
2018-02-20T10:27:45.309Z,101011.77
2018-02-20T10:30:12.906Z,101013.36
2018-02-20T10:32:40.519Z,101008.09
2018-02-20T10:35:08.091Z,101012.42
2018-02-20T10:37:35.668Z,101012.70
2018-02-20T10:40:03.232Z,101009.53
2018-02-20T10:42:30.774Z,101010.57
2018-02-20T10:44:58.324Z,101016.53
2018-02-20T10:47:25.858Z,101015.31
2018-02-20T10:49:53.419Z,101019.47
2018-02-20T10:52:20.972Z,101010.27
2018-02-20T10:54:48.539Z,101012.53
2018-02-20T10:57:16.060Z,101004.78
2018-02-20T10:59:43.609Z,101005.66
2018-02-20T11:02:11.151Z,101008.30
2018-02-20T11:04:38.705Z,101008.43
2018-02-20T11:07:06.267Z,101010.78
2018-02-20T11:09:33.811Z,101010.27
2018-02-20T11:12:01.547Z,101005.55
2018-02-20T11:14:29.068Z,101001.99
2018-02-20T11:16:56.580Z,101005.21
2018-02-20T11:19:24.151Z,100997.59
2018-02-20T11:21:51.673Z,101000.30
2018-02-20T11:24:19.201Z,101001.67
2018-02-20T11:26:46.752Z,101002.48
2018-02-20T11:29:14.326Z,101004.76
2018-02-20T11:31:41.968Z,101010.50
2018-02-20T11:34:09.492Z,101007.32
2018-02-20T11:36:37.008Z,101013.31
2018-02-20T11:39:04.693Z,101011.26
2018-02-20T11:41:32.214Z,101015.80
2018-02-20T11:43:59.724Z,101009.48
2018-02-20T11:46:27.250Z,101013.19
2018-02-20T11:48:54.792Z,101015.31
2018-02-20T11:51:22.329Z,101011.86
2018-02-20T11:53:49.976Z,101011.92
2018-02-20T11:56:17.542Z,101011.61
2018-02-20T11:58:45.079Z,101016.80
2018-02-20T12:01:12.650Z,101016.71
2018-02-20T12:03:40.193Z,101021.31
2018-02-20T12:06:07.853Z,101020.25
2018-02-20T12:08:35.441Z,101016.33
2018-02-20T12:11:03.010Z,101016.47
2018-02-20T12:13:30.546Z,101023.92
2018-02-20T12:15:58.095Z,101023.36
2018-02-20T12:18:25.658Z,101030.27
2018-02-20T12:20:53.238Z,101024.09
2018-02-20T12:23:20.816Z,101026.86
2018-02-20T12:25:48.334Z,101024.65
2018-02-20T12:28:15.978Z,101031.22
2018-02-20T12:30:43.550Z,101024.83
2018-02-20T12:33:11.118Z,101027.82
2018-02-20T12:35:38.684Z,101023.64
2018-02-20T12:38:06.228Z,101026.32
2018-02-20T12:40:33.769Z,101021.58
2018-02-20T12:43:01.343Z,101020.20
2018-02-20T12:45:28.861Z,101018.83
2018-02-20T12:47:56.438Z,101013.13
2018-02-20T12:50:23.962Z,101010.69
2018-02-20T12:52:51.508Z,101015.05
2018-02-20T12:55:19.086Z,101026.24
2018-02-20T12:57:46.645Z,101012.00
2018-02-20T13:00:14.197Z,101019.94
2018-02-20T13:02:41.738Z,101018.78
2018-02-20T13:05:09.307Z,101023.76
2018-02-20T13:07:36.890Z,101023.44
2018-02-20T13:10:04.449Z,101021.09
2018-02-20T13:12:32.033Z,101023.75
2018-02-20T13:14:59.637Z,101020.25
2018-02-20T13:17:27.154Z,101027.18
2018-02-20T13:19:54.735Z,101021.64
2018-02-20T13:22:22.295Z,101033.59
2018-02-20T13:24:49.904Z,101027.30
2018-02-20T13:27:17.433Z,101023.76
2018-02-20T13:29:44.978Z,101027.97
2018-02-20T13:32:12.541Z,101019.54
2018-02-20T13:34:40.115Z,101029.61
2018-02-20T13:37:07.672Z,101031.44
2018-02-20T13:39:35.221Z,101031.16
2018-02-20T13:42:02.749Z,101032.28
2018-02-20T13:44:30.362Z,101030.59
2018-02-20T13:46:58.003Z,101038.59
2018-02-20T13:49:25.543Z,101035.85
2018-02-20T13:51:53.071Z,101035.55
2018-02-20T13:54:20.634Z,101038.18
2018-02-20T13:56:48.165Z,101041.35
2018-02-20T13:59:15.710Z,101045.91
2018-02-20T14:01:43.262Z,101041.08
2018-02-20T14:04:11.621Z,101036.54
2018-02-20T14:06:39.215Z,101036.31
2018-02-20T14:09:06.737Z,101035.33
2018-02-20T14:11:34.305Z,101038.80
2018-02-20T14:14:01.841Z,101041.03
2018-02-20T14:16:29.396Z,101038.89
2018-02-20T14:18:56.914Z,101036.22
2018-02-20T14:21:24.466Z,101042.03
2018-02-20T14:23:52.003Z,101047.37
2018-02-20T14:26:19.510Z,101050.19
2018-02-20T14:28:47.033Z,101043.20
2018-02-20T14:31:16.590Z,101047.70
2018-02-20T14:33:44.122Z,101052.28
2018-02-20T14:36:11.661Z,101047.18
2018-02-20T14:38:39.290Z,101052.33
2018-02-20T14:41:06.847Z,101055.95
2018-02-20T14:43:34.398Z,101054.91
2018-02-20T14:46:01.964Z,101046.76
2018-02-20T14:48:29.583Z,101052.37
2018-02-20T14:50:57.237Z,101039.40
2018-02-20T14:53:24.756Z,101049.75
2018-02-20T14:55:52.396Z,101052.24
2018-02-20T14:58:20.193Z,101054.20
2018-02-20T15:00:48.897Z,101058.47
2018-02-20T15:03:16.720Z,101065.31
2018-02-20T15:05:44.473Z,101072.69
2018-02-20T15:08:12.254Z,101071.66
2018-02-20T15:10:39.919Z,101072.38
2018-02-20T15:13:07.791Z,101072.80
2018-02-20T15:15:35.692Z,101076.70
2018-02-20T15:18:03.537Z,101078.22
2018-02-20T15:20:31.442Z,101081.02
2018-02-20T15:22:59.266Z,101083.88
2018-02-20T15:25:27.079Z,101085.59
2018-02-20T15:27:54.944Z,101084.24
2018-02-20T15:30:22.840Z,101087.81
2018-02-20T15:32:50.607Z,101092.08
2018-02-20T15:35:18.483Z,101100.30
2018-02-20T15:37:46.299Z,101101.34
2018-02-20T15:40:14.026Z,101098.88
2018-02-20T15:42:41.793Z,101099.84
2018-02-20T15:45:09.593Z,101102.25
2018-02-20T15:47:37.481Z,101101.72
2018-02-20T15:50:05.307Z,101111.31
2018-02-20T15:52:33.070Z,101111.73
2018-02-20T15:55:00.648Z,101111.82
2018-02-20T15:57:28.210Z,101122.88
2018-02-20T15:59:55.768Z,101130.73
2018-02-20T16:02:23.312Z,101128.46
2018-02-20T16:04:50.862Z,101128.08
2018-02-20T16:07:18.384Z,101122.38
2018-02-20T16:09:45.886Z,101130.28
2018-02-20T16:12:13.413Z,101129.67
2018-02-20T16:14:40.957Z,101134.44
2018-02-20T16:17:08.453Z,101135.28
2018-02-20T16:19:35.977Z,101132.27
2018-02-20T16:22:03.627Z,101138.42
2018-02-20T16:24:31.146Z,101136.84
2018-02-20T16:26:58.691Z,101137.64
2018-02-20T16:29:26.266Z,101143.83
2018-02-20T16:31:53.793Z,101135.99
2018-02-20T16:34:21.349Z,101140.16
2018-02-20T16:36:48.933Z,101138.22
2018-02-20T16:39:16.600Z,101138.66
2018-02-20T16:41:44.160Z,101142.24
2018-02-20T16:44:11.709Z,101139.95
2018-02-20T16:46:39.332Z,101152.02
2018-02-20T16:49:06.909Z,101155.23
2018-02-20T16:51:34.446Z,101161.01
2018-02-20T16:54:02.008Z,101165.16
2018-02-20T16:56:29.662Z,101167.53
2018-02-20T16:58:57.276Z,101165.24
2018-02-20T17:01:24.823Z,101169.36
2018-02-20T17:03:52.385Z,101173.38
2018-02-20T17:06:20.003Z,101173.78
2018-02-20T17:08:47.560Z,101184.06
2018-02-20T17:11:15.082Z,101186.25
2018-02-20T17:13:42.655Z,101193.11
2018-02-20T17:16:10.207Z,101193.96
2018-02-20T17:18:37.801Z,101196.28
2018-02-20T17:21:05.355Z,101203.70
2018-02-20T17:23:33.101Z,101206.44
2018-02-20T17:26:00.629Z,101210.56
2018-02-20T17:28:28.140Z,101211.41
2018-02-20T17:30:55.677Z,101210.13
2018-02-20T17:33:23.199Z,101213.19
2018-02-20T17:35:50.738Z,101213.34
2018-02-20T17:38:18.336Z,101218.31
2018-02-20T17:40:45.882Z,101218.65
2018-02-20T17:43:13.442Z,101216.91
2018-02-20T17:45:41.136Z,101217.67
2018-02-20T17:48:08.749Z,101218.98
2018-02-20T17:50:36.709Z,101219.59
2018-02-20T17:53:04.272Z,101216.61
2018-02-20T17:55:31.919Z,101219.13
2018-02-20T17:57:59.492Z,101224.84
2018-02-20T18:00:27.066Z,101226.80
2018-02-20T18:02:54.672Z,101225.88
2018-02-20T18:05:22.231Z,101231.18
2018-02-20T18:07:49.775Z,101239.51
2018-02-20T18:10:17.295Z,101241.66
2018-02-20T18:12:44.859Z,101240.33
2018-02-20T18:15:12.478Z,101240.18
2018-02-20T18:17:40.026Z,101243.96
2018-02-20T18:20:07.644Z,101248.52
2018-02-20T18:22:35.243Z,101246.75
2018-02-20T18:25:02.804Z,101249.69
2018-02-20T18:27:30.361Z,101250.86
2018-02-20T18:29:57.919Z,101249.59
2018-02-20T18:32:27.287Z,101246.38
2018-02-20T18:34:54.822Z,101249.89
2018-02-20T18:37:22.388Z,101253.48
2018-02-20T18:39:49.944Z,101261.27
2018-02-20T18:42:17.504Z,101260.26
2018-02-20T18:44:45.120Z,101267.73
2018-02-20T18:47:12.723Z,101273.11
2018-02-20T18:49:40.428Z,101276.81
2018-02-20T18:52:07.993Z,101275.97
2018-02-20T18:54:35.552Z,101277.14
2018-02-20T18:57:03.110Z,101278.61
2018-02-20T18:59:30.746Z,101280.72
2018-02-20T19:01:58.279Z,101281.47
2018-02-20T19:04:25.805Z,101278.92
2018-02-20T19:06:53.349Z,101277.11
2018-02-20T19:09:20.916Z,101279.42
2018-02-20T19:11:48.509Z,101287.31
2018-02-20T19:14:16.176Z,101285.34
2018-02-20T19:16:43.759Z,101286.52
2018-02-20T19:19:11.326Z,101289.50
2018-02-20T19:21:38.877Z,101287.84
2018-02-20T19:24:06.404Z,101286.49
2018-02-20T19:26:33.941Z,101289.91
2018-02-20T19:29:01.479Z,101292.78
2018-02-20T19:31:29.048Z,101300.11
2018-02-20T19:33:56.583Z,101298.25
2018-02-20T19:36:24.132Z,101303.60
2018-02-20T19:38:51.772Z,101306.47
2018-02-20T19:41:19.321Z,101311.01
2018-02-20T19:43:46.914Z,101313.03
2018-02-20T19:46:14.590Z,101313.77
2018-02-20T19:48:42.120Z,101318.20
2018-02-20T19:51:09.676Z,101313.10
2018-02-20T19:53:37.230Z,101317.69
2018-02-20T19:56:04.786Z,101313.67
2018-02-20T19:58:32.486Z,101316.88
2018-02-20T20:01:00.022Z,101321.48
2018-02-20T20:03:27.588Z,101320.97
2018-02-20T20:05:55.284Z,101321.23
2018-02-20T20:08:22.797Z,101327.33
2018-02-20T20:10:50.337Z,101329.70
2018-02-20T20:13:17.864Z,101329.23
2018-02-20T20:15:45.422Z,101329.61
2018-02-20T20:18:12.986Z,101325.74
2018-02-20T20:20:47.935Z,101326.41
2018-02-20T20:23:08.203Z,101325.20
2018-02-20T20:25:36.374Z,101331.83
2018-02-20T20:28:03.987Z,101323.36
2018-02-20T20:30:31.562Z,101326.89
2018-02-20T20:32:59.069Z,101331.90
2018-02-20T20:35:26.680Z,101334.66
2018-02-20T20:37:54.207Z,101332.16
2018-02-20T20:40:21.775Z,101338.74
2018-02-20T20:42:49.488Z,101332.16
2018-02-20T20:45:17.051Z,101338.66
2018-02-20T20:47:44.795Z,101336.93
2018-02-20T20:50:12.588Z,101346.38
2018-02-20T20:52:40.341Z,101350.83
2018-02-20T20:55:07.905Z,101353.80
2018-02-20T20:57:35.993Z,101355.93
2018-02-20T21:00:03.640Z,101352.64
2018-02-20T21:02:31.366Z,101354.12
2018-02-20T21:04:59.867Z,101356.36
2018-02-20T21:07:27.405Z,101350.48
2018-02-20T21:09:54.974Z,101352.14
2018-02-20T21:12:22.993Z,101347.96
2018-02-20T21:14:50.771Z,101355.08
2018-02-20T21:17:18.504Z,101356.09
2018-02-20T21:19:46.113Z,101354.31
2018-02-20T21:22:13.696Z,101350.95
2018-02-20T21:24:42.356Z,101355.73
2018-02-20T21:27:09.967Z,101346.98
2018-02-20T21:29:37.654Z,101348.22
2018-02-20T21:32:05.371Z,101352.73
2018-02-20T21:34:32.965Z,101349.17
2018-02-20T21:37:00.566Z,101352.11
2018-02-20T21:39:28.149Z,101357.89
2018-02-20T21:41:55.861Z,101352.41
2018-02-20T21:44:23.485Z,101350.48
2018-02-20T21:46:51.430Z,101361.28
2018-02-20T21:49:19.406Z,101360.28
2018-02-20T21:51:46.982Z,101350.55
2018-02-20T21:54:14.641Z,101358.87
2018-02-20T21:56:42.411Z,101357.84
2018-02-20T21:59:09.970Z,101361.38
2018-02-20T22:01:37.579Z,101361.05
2018-02-20T22:04:05.109Z,101375.20
2018-02-20T22:06:32.620Z,101372.64
2018-02-20T22:09:00.213Z,101384.17
2018-02-20T22:11:27.739Z,101380.30
2018-02-20T22:13:55.431Z,101381.53
2018-02-20T22:16:23.536Z,101385.41
2018-02-20T22:18:51.093Z,101387.61
2018-02-20T22:21:18.816Z,101389.42
2018-02-20T22:23:46.429Z,101396.52
2018-02-20T22:26:14.060Z,101396.22
2018-02-20T22:28:41.669Z,101400.21
2018-02-20T22:31:09.211Z,101399.95
2018-02-20T22:33:36.876Z,101397.78
2018-02-20T22:36:04.431Z,101404.99
2018-02-20T22:38:31.987Z,101410.13
2018-02-20T22:40:59.551Z,101412.27
2018-02-20T22:43:27.118Z,101418.95
2018-02-20T22:45:54.665Z,101420.91
2018-02-20T22:48:22.225Z,101420.83
2018-02-20T22:50:49.794Z,101425.12
2018-02-20T22:53:17.456Z,101428.04
2018-02-20T22:55:45.003Z,101428.77
2018-02-20T22:58:12.580Z,101431.59
2018-02-20T23:00:40.122Z,101432.33
2018-02-20T23:03:07.673Z,101435.61
2018-02-20T23:05:35.346Z,101440.09
2018-02-20T23:08:02.919Z,101439.58
2018-02-20T23:10:30.896Z,101444.88
2018-02-20T23:12:58.505Z,101440.34
2018-02-20T23:15:26.061Z,101445.25
2018-02-20T23:17:53.610Z,101445.05
2018-02-20T23:20:21.245Z,101446.19
2018-02-20T23:22:48.904Z,101446.40
2018-02-20T23:25:16.446Z,101448.89
2018-02-20T23:27:43.987Z,101448.53
2018-02-20T23:30:11.581Z,101450.99
2018-02-20T23:32:39.147Z,101454.78
2018-02-20T23:35:06.776Z,101451.04
2018-02-20T23:37:34.370Z,101456.02
2018-02-20T23:40:02.070Z,101460.09
2018-02-20T23:42:29.791Z,101462.62
2018-02-20T23:44:57.384Z,101456.49
2018-02-20T23:47:24.975Z,101461.48
2018-02-20T23:49:52.554Z,101461.38
2018-02-20T23:52:22.225Z,101463.28
2018-02-20T23:54:49.983Z,101458.13
2018-02-20T23:57:17.563Z,101463.97
2018-02-20T23:59:51.982Z,101466.38
